Time;durP1;ratioP1;P1;durP2;ratioP2;P2;SDS_P1;SDS_P2;PMS_P1;PMS_P2;Temp;Humidity;BMP_temperature;BMP_pressure;BME280_temperature;BME280_humidity;BME280_pressure;Samples;Min_cycle;Max_cycle;Signal;HPM_P1;HPM_P2
2022/06/13 00:02:22;;;;;;;9.33;4.13;;;18.50;57.50;;;21.17;44.23;101828.34;5093245;28;20291;-62
2022/06/13 00:04:50;;;;;;;9.53;3.80;;;18.40;57.60;;;21.15;44.63;101819.69;5093842;28;20279;-63
2022/06/13 00:07:18;;;;;;;8.30;3.93;;;18.40;57.70;;;21.14;44.25;101834.13;5093458;28;20276;-61
2022/06/13 00:09:45;;;;;;;10.27;4.17;;;18.40;57.80;;;21.11;44.21;101829.19;5109422;28;20267;-61
2022/06/13 00:12:13;;;;;;;6.90;3.40;;;18.30;57.80;;;21.06;44.58;101820.97;5093140;28;20212;-63
2022/06/13 00:14:41;;;;;;;12.73;3.90;;;18.30;57.80;;;21.05;44.50;101822.03;5094224;28;20210;-60
2022/06/13 00:17:09;;;;;;;11.47;4.10;;;18.30;58.00;;;21.01;44.59;101817.31;5093679;28;20574;-61
2022/06/13 00:19:37;;;;;;;8.70;3.70;;;18.20;58.00;;;20.97;44.49;101824.94;5093630;28;20216;-62
2022/06/13 00:22:05;;;;;;;11.10;4.30;;;18.20;58.20;;;20.93;45.15;101823.72;5092984;28;20286;-61
2022/06/13 00:24:36;;;;;;;6.40;3.17;;;18.10;58.30;;;20.89;44.81;101826.00;5093239;28;20265;-63
2022/06/13 00:27:04;;;;;;;9.77;4.33;;;18.10;58.30;;;20.87;45.18;101838.00;5093126;28;20216;-62
2022/06/13 00:29:32;;;;;;;9.83;3.73;;;18.10;58.50;;;20.83;45.06;101836.75;5093411;28;20271;-63
2022/06/13 00:32:01;;;;;;;11.37;3.80;;;18.10;59.40;;;20.79;45.46;101835.56;5096196;28;20223;-62
2022/06/13 00:34:28;;;;;;;9.40;3.80;;;18.00;58.90;;;20.75;45.93;101835.16;5097221;28;20184;-63
2022/06/13 00:36:56;;;;;;;10.37;3.43;;;18.00;59.80;;;20.72;45.88;101829.41;5097018;28;20200;-63
2022/06/13 00:39:23;;;;;;;8.20;3.97;;;18.00;59.40;;;20.69;45.67;101824.47;5097187;28;20295;-61
2022/06/13 00:41:51;;;;;;;10.03;4.00;;;17.90;59.30;;;20.66;45.80;101819.56;5096796;28;20208;-64
2022/06/13 00:44:22;;;;;;;8.27;4.00;;;17.90;59.60;;;20.63;45.93;101815.47;5097807;28;20264;-63
2022/06/13 00:46:50;;;;;;;5.50;3.20;;;17.90;59.70;;;20.63;46.43;101820.00;5117438;28;20211;-60
2022/06/13 00:49:26;;;;;;;12.77;4.00;;;17.90;59.80;;;20.61;46.55;101816.72;5117574;28;20184;-61
2022/06/13 00:52:04;;;;;;;11.03;3.87;;;17.90;60.00;;;20.58;46.16;101811.78;5117478;28;20223;-61
2022/06/13 00:54:36;;;;;;;10.13;3.53;;;17.90;59.80;;;20.55;46.25;101807.69;5117940;28;20196;-61
2022/06/13 00:57:13;;;;;;;8.50;3.30;;;17.90;59.60;;;20.55;46.33;101818.38;5117572;27;20226;-63
2022/06/13 00:59:41;;;;;;;10.93;3.47;;;17.80;59.90;;;20.56;46.28;101808.50;5117318;28;20203;-63
2022/06/13 01:02:10;;;;;;;8.13;3.50;;;17.80;59.90;;;20.57;46.39;101810.13;5112855;28;20212;-62
2022/06/13 01:04:40;;;;;;;8.30;3.70;;;17.80;60.00;;;20.58;46.18;101806.44;5117313;28;20222;-62
2022/06/13 01:07:10;;;;;;;7.43;3.60;;;17.80;60.00;;;20.59;46.33;101802.72;5117550;28;20282;-62
2022/06/13 01:12:28;;;;;;;9.10;3.90;;;17.80;60.10;;;20.58;46.23;101803.78;5116812;28;20212;-63
2022/06/13 01:15:16;;;;;;;12.03;3.63;;;17.80;60.00;;;20.55;46.06;101801.50;5117210;28;20657;-62
2022/06/13 01:18:06;;;;;;;9.50;4.20;;;17.80;60.00;;;20.51;46.29;101797.63;5117347;28;20188;-63
2022/06/13 01:20:58;;;;;;;8.30;3.50;;;17.80;60.00;;;20.48;46.32;101790.03;5075966;28;20263;-62
2022/06/13 01:24:14;;;;;;;8.40;4.27;;;17.80;59.70;;;20.40;46.65;101798.28;5076579;28;20189;-63
2022/06/13 01:27:40;;;;;;;10.10;3.87;;;17.80;59.90;;;20.36;47.00;101791.72;5076686;28;20263;-62
2022/06/13 01:30:51;;;;;;;8.70;4.20;;;17.80;60.20;;;20.32;47.20;101790.53;5051661;28;20216;-61
2022/06/13 01:33:33;;;;;;;7.33;3.77;;;17.70;60.20;;;20.35;46.76;101785.56;5076955;28;20199;-63
2022/06/13 01:36:34;;;;;;;8.83;3.80;;;17.70;60.10;;;20.32;47.07;101791.34;5090269;28;20196;-62
2022/06/13 01:39:23;;;;;;;8.80;3.67;;;17.70;60.40;;;20.32;46.95;101785.16;5096331;28;20209;-63
2022/06/13 01:42:09;;;;;;;7.23;3.90;;;17.70;60.30;;;20.29;46.89;101786.41;5095294;28;20215;-62
2022/06/13 01:44:53;;;;;;;8.57;4.07;;;17.60;60.40;;;20.27;46.85;101790.34;5095938;28;20203;-63
2022/06/13 01:47:33;;;;;;;10.10;4.63;;;17.60;60.50;;;20.23;47.16;101785.41;5095757;28;20690;-62
2022/06/13 01:50:22;;;;;;;11.37;3.87;;;17.50;60.60;;;20.18;47.19;101785.19;5095537;28;20196;-62
2022/06/13 01:53:02;;;;;;;7.67;3.70;;;17.50;61.00;;;20.17;47.54;101796.09;5095782;28;20188;-63
2022/06/13 01:55:44;;;;;;;9.17;4.30;;;17.50;61.20;;;20.20;47.27;101788.50;5095686;28;20634;-62
2022/06/13 01:58:21;;;;;;;6.47;3.60;;;17.50;61.90;;;20.23;46.83;101785.41;5095488;28;20191;-62
2022/06/13 02:01:03;;;;;;;7.60;4.10;;;17.50;61.00;;;20.25;46.84;101786.00;5095330;28;20243;-62
2022/06/13 02:03:39;;;;;;;10.17;4.13;;;17.50;61.00;;;20.28;47.33;101783.97;5094563;28;20203;-62
2022/06/13 02:06:17;;;;;;;10.83;4.50;;;17.50;61.30;;;20.28;47.12;101784.75;5095874;28;20191;-62
2022/06/13 02:08:52;;;;;;;7.73;3.57;;;17.50;61.30;;;20.32;47.42;101779.81;5099671;28;20184;-62
2022/06/13 02:11:28;;;;;;;6.80;3.93;;;17.50;61.20;;;20.35;47.02;101782.06;5115463;28;20207;-62
2022/06/13 02:14:05;;;;;;;10.03;4.47;;;17.60;61.30;;;20.37;46.96;101777.34;5115646;28;20281;-61
2022/06/13 02:16:39;;;;;;;8.93;4.50;;;17.60;61.50;;;20.38;46.98;101778.97;5115880;28;20198;-61
2022/06/13 02:19:17;;;;;;;11.67;6.23;;;17.60;61.60;;;20.36;47.17;101770.34;5115824;28;20207;-63
2022/06/13 02:21:52;;;;;;;11.77;5.73;;;17.60;61.50;;;20.36;47.31;101770.34;5115074;28;20211;-63
2022/06/13 02:24:26;;;;;;;10.20;4.67;;;17.50;61.50;;;20.33;47.03;101763.56;5115585;28;20555;-61
2022/06/13 02:26:59;;;;;;;9.23;5.03;;;17.50;61.60;;;20.31;47.15;101762.94;5114403;28;20198;-63
2022/06/13 02:29:33;;;;;;;8.47;4.50;;;17.50;61.90;;;20.32;47.10;101769.13;5115225;28;20222;-60
2022/06/13 02:32:08;;;;;;;10.27;4.87;;;17.50;62.00;;;20.32;47.06;101759.25;5114871;28;20208;-61
2022/06/13 02:34:42;;;;;;;14.60;5.37;;;17.50;61.90;;;20.32;47.27;101758.44;5115202;28;20187;-63
2022/06/13 02:37:17;;;;;;;11.70;5.13;;;17.50;61.90;;;20.31;47.39;101752.25;5115073;28;20664;-63
2022/06/13 02:39:52;;;;;;;6.40;4.60;;;17.50;61.90;;;20.31;47.50;101767.47;5115571;28;20210;-63
2022/06/13 02:42:27;;;;;;;10.60;4.87;;;17.50;62.20;;;20.30;47.70;101771.19;5108737;28;20242;-63
2022/06/13 02:45:04;;;;;;;9.60;5.50;;;17.50;62.10;;;20.27;47.61;101779.63;5093428;28;20208;-63
2022/06/13 02:47:39;;;;;;;12.70;4.57;;;17.50;62.30;;;20.25;47.66;101775.31;5095214;28;20192;-63
2022/06/13 02:50:16;;;;;;;10.30;5.47;;;17.40;62.40;;;20.20;47.82;101775.13;5094698;28;20199;-63
2022/06/13 02:52:56;;;;;;;10.53;5.50;;;17.40;62.60;;;20.12;47.88;101771.84;5094284;28;20209;-62
2022/06/13 02:55:24;;;;;;;14.40;5.40;;;17.40;62.60;;;20.03;47.87;101775.78;5094987;28;20203;-62
2022/06/13 02:58:09;;;;;;;11.47;5.23;;;17.30;62.80;;;19.93;47.99;101780.75;5094367;28;20188;-63
2022/06/13 03:00:56;;;;;;;13.20;5.27;;;17.20;63.00;;;19.84;48.46;101782.84;5110956;27;20212;-62
2022/06/13 03:03:41;;;;;;;12.13;5.97;;;17.20;63.30;;;19.80;48.63;101792.28;5102047;28;20191;-63
2022/06/13 03:06:26;;;;;;;8.80;5.20;;;17.10;63.90;;;19.76;49.03;101785.72;5114412;28;20192;-62
2022/06/13 03:09:06;;;;;;;13.80;6.00;;;17.10;64.10;;;19.73;48.83;101778.13;5114484;28;20207;-63
2022/06/13 03:11:55;;;;;;;9.30;4.93;;;17.00;64.10;;;19.69;48.94;101784.09;5113775;28;20207;-62
2022/06/13 03:14:42;;;;;;;9.00;5.00;;;17.00;64.10;;;19.66;49.35;101785.31;5114613;28;20198;-63
2022/06/13 03:17:23;;;;;;;14.23;7.60;;;17.00;65.50;;;19.66;49.66;101785.31;5113974;28;20696;-63
2022/06/13 03:20:01;;;;;;;10.53;5.37;;;17.00;64.90;;;19.67;49.15;101775.47;5097919;28;20212;-62
2022/06/13 03:22:40;;;;;;;11.83;5.20;;;17.00;64.60;;;19.68;49.55;101777.94;5093420;28;20215;-61
2022/06/13 03:25:20;;;;;;;13.27;5.17;;;16.90;64.80;;;19.73;49.37;101774.66;5093888;28;20259;-62
2022/06/13 03:27:56;;;;;;;12.67;5.70;;;17.00;65.00;;;19.77;49.64;101766.00;5093319;28;20181;-63
2022/06/13 03:30:30;;;;;;;11.73;5.07;;;17.00;65.20;;;19.82;49.28;101763.53;5093118;28;20168;-62
2022/06/13 03:35:55;;;;;;;10.73;4.97;;;17.00;65.20;;;19.91;49.10;101761.44;5073226;28;20204;-62
2022/06/13 03:38:33;;;;;;;28.40;7.70;;;17.10;64.90;;;19.93;49.67;101765.53;5073249;28;20236;-62
2022/06/13 03:41:04;;;;;;;24.77;7.67;;;17.10;65.50;;;19.99;49.32;101774.56;5072978;28;20217;-63
2022/06/13 03:43:38;;;;;;;13.00;5.93;;;17.10;65.50;;;20.02;49.67;101771.47;5073125;28;20557;-62
2022/06/13 03:46:13;;;;;;;11.40;5.93;;;17.20;65.40;;;20.06;49.49;101754.78;5073385;28;20192;-63
2022/06/13 03:49:06;;;;;;;11.13;5.10;;;17.20;65.20;;;20.05;49.09;101763.84;5073226;28;20193;-61
2022/06/13 03:51:41;;;;;;;12.73;5.27;;;17.20;64.80;;;20.10;49.04;101777.41;5087864;28;20227;-63
2022/06/13 03:54:18;;;;;;;8.67;4.50;;;17.30;64.70;;;20.12;49.06;101775.34;5093137;28;20176;-63
2022/06/13 03:56:51;;;;;;;8.90;4.90;;;17.30;64.50;;;20.16;48.77;101770.38;5093146;28;20271;-63
2022/06/13 03:59:33;;;;;;;14.93;6.23;;;17.30;64.40;;;20.08;49.36;101779.47;5093436;28;20196;-63
2022/06/13 04:02:14;;;;;;;11.47;5.70;;;17.30;64.40;;;20.00;49.50;101777.03;5092917;28;20230;-63
2022/06/13 04:04:48;;;;;;;12.70;4.93;;;17.40;64.30;;;19.97;49.21;101769.41;5093528;28;20211;-61
2022/06/13 04:07:19;;;;;;;12.63;5.00;;;17.30;64.30;;;19.98;49.14;101779.09;5108896;28;20208;-62
2022/06/13 04:09:52;;;;;;;11.30;5.93;;;17.30;64.60;;;20.01;49.12;101777.84;5093673;28;20199;-62
2022/06/13 04:12:44;;;;;;;9.53;5.10;;;17.30;64.90;;;20.02;49.30;101785.66;5092982;28;20243;-62
2022/06/13 04:15:54;;;;;;;10.67;5.43;;;17.30;64.90;;;19.98;49.57;101784.44;5093262;28;20659;-62
2022/06/13 04:18:43;;;;;;;9.57;4.70;;;17.30;64.70;;;19.86;49.27;101775.44;5093165;28;20188;-62
2022/06/13 04:21:32;;;;;;;9.43;5.20;;;17.30;64.70;;;19.69;50.10;101774.22;5092552;28;20223;-62
2022/06/13 04:24:16;;;;;;;11.93;5.40;;;17.20;64.60;;;19.63;50.20;101779.59;5093026;28;20698;-62
2022/06/13 04:26:54;;;;;;;8.67;4.63;;;17.20;64.90;;;19.72;50.35;101773.81;5072784;28;20598;-63
2022/06/13 04:29:28;;;;;;;13.00;6.10;;;17.20;65.20;;;19.84;50.09;101763.31;5072880;28;20574;-62
2022/06/13 04:32:05;;;;;;;11.67;5.40;;;17.20;65.20;;;19.94;49.51;101772.53;5072443;28;20212;-62
2022/06/13 04:34:43;;;;;;;12.03;5.90;;;17.20;65.20;;;20.05;49.38;101766.53;5072697;28;20507;-63
2022/06/13 04:37:13;;;;;;;14.67;5.00;;;17.20;65.20;;;20.14;49.11;101762.59;5072371;28;20205;-63
2022/06/13 04:39:42;;;;;;;14.23;5.30;;;17.30;65.80;;;20.21;49.22;101763.38;5072214;28;20679;-63
2022/06/13 04:42:14;;;;;;;13.10;5.87;;;17.30;64.90;;;20.26;49.07;101765.44;5092847;28;20212;-63
2022/06/13 04:44:44;;;;;;;9.00;5.13;;;17.40;64.70;;;20.34;49.19;101764.38;5105657;28;20211;-63
2022/06/13 04:47:15;;;;;;;9.33;5.37;;;17.40;64.70;;;20.45;48.68;101769.03;5092198;28;20199;-63
2022/06/13 04:49:49;;;;;;;11.53;5.23;;;17.50;64.60;;;20.45;48.51;101769.88;5092383;28;20605;-62
2022/06/13 04:52:24;;;;;;;11.57;5.63;;;17.50;64.20;;;20.50;48.31;101766.56;5091686;28;20573;-63
2022/06/13 04:54:59;;;;;;;9.50;4.90;;;17.60;64.00;;;20.54;48.06;101763.22;5092625;28;20196;-62
2022/06/13 04:57:29;;;;;;;9.57;5.20;;;17.70;63.90;;;20.56;48.02;101765.72;5107894;28;20235;-62
2022/06/13 04:59:57;;;;;;;14.13;5.67;;;17.70;63.80;;;20.61;47.86;101757.88;5108840;28;20218;-65
2022/06/13 05:02:38;;;;;;;12.63;5.40;;;17.70;63.70;;;20.62;47.91;101764.84;5112138;28;20307;-62
2022/06/13 05:05:27;;;;;;;11.57;5.40;;;17.70;63.60;;;20.66;48.24;101766.88;5112588;28;20669;-62
2022/06/13 05:07:55;;;;;;;9.27;5.17;;;17.80;63.80;;;20.75;47.68;101764.75;5117187;28;20191;-63
2022/06/13 05:10:31;;;;;;;12.53;5.77;;;17.80;63.50;;;20.82;47.69;101765.53;5112423;28;20180;-63
2022/06/13 05:13:00;;;;;;;13.80;5.37;;;17.90;63.50;;;20.89;47.92;101766.31;5112575;28;20218;-62
2022/06/13 05:15:33;;;;;;;12.37;4.83;;;17.90;63.50;;;20.94;47.41;101769.16;5110471;28;20191;-62
2022/06/13 05:18:44;;;;;;;9.47;5.47;;;18.00;63.40;;;20.91;47.31;101774.94;5100500;28;20317;-62
2022/06/13 05:21:33;;;;;;;15.17;6.97;;;18.00;63.30;;;20.96;47.30;101776.97;5094931;28;20261;-63
2022/06/13 05:24:40;;;;;;;11.93;6.03;;;18.00;63.40;;;20.97;47.64;101779.41;5095600;28;20188;-63
2022/06/13 05:27:08;;;;;;;8.57;4.83;;;18.10;63.30;;;21.04;47.72;101785.53;5095535;28;20283;-63
2022/06/13 05:29:37;;;;;;;10.97;5.63;;;18.10;63.10;;;21.04;47.16;101782.88;5095492;28;20254;-62
2022/06/13 05:32:08;;;;;;;9.43;5.00;;;18.10;63.10;;;21.02;47.56;101792.97;5095188;28;20645;-62
2022/06/13 05:34:39;;;;;;;11.43;5.07;;;18.10;62.90;;;20.97;47.74;101790.13;5095278;28;20195;-64
2022/06/13 05:37:09;;;;;;;11.40;5.37;;;18.10;63.10;;;20.96;47.57;101793.03;5095735;28;20223;-62
2022/06/13 05:39:37;;;;;;;11.70;4.80;;;18.10;63.30;;;20.98;47.53;101794.47;5095346;28;20185;-63
2022/06/13 05:42:06;;;;;;;16.40;6.40;;;18.10;63.50;;;21.03;47.93;101791.13;5094948;28;20227;-62
2022/06/13 05:44:33;;;;;;;11.33;5.83;;;18.10;63.70;;;21.08;47.52;101794.00;5095228;28;20211;-63
2022/06/13 05:47:03;;;;;;;15.07;6.33;;;18.10;63.50;;;21.09;47.97;101788.44;5095490;28;20271;-61
2022/06/13 05:49:30;;;;;;;12.87;6.40;;;18.10;63.60;;;21.14;48.02;101791.28;5096935;28;20524;-62
2022/06/13 05:51:58;;;;;;;19.10;6.40;;;18.10;63.80;;;21.19;47.92;101798.66;5094945;28;20295;-63
2022/06/13 05:54:25;;;;;;;13.73;5.40;;;18.20;63.60;;;21.23;47.22;101797.16;5096693;28;20282;-64
2022/06/13 05:56:53;;;;;;;9.43;4.97;;;18.20;63.60;;;21.31;47.42;101797.72;5096699;28;20196;-63
2022/06/13 05:59:20;;;;;;;12.47;4.93;;;18.20;63.50;;;21.42;47.10;101788.97;5095377;28;20185;-63
2022/06/13 06:01:48;;;;;;;11.70;6.10;;;18.30;63.50;;;21.49;47.30;101800.44;5094544;28;20717;-62
2022/06/13 06:04:17;;;;;;;14.03;5.97;;;18.40;63.20;;;21.49;46.56;101796.94;5094884;28;20191;-62
2022/06/13 06:06:45;;;;;;;10.70;5.50;;;18.40;62.80;;;21.47;46.80;101796.34;5095501;28;20216;-61
2022/06/13 06:09:14;;;;;;;10.70;5.47;;;18.50;62.70;;;21.52;47.01;101794.66;5095570;28;20189;-66
2022/06/13 06:11:41;;;;;;;10.77;5.67;;;18.50;62.60;;;21.61;46.67;101794.38;5095416;28;20219;-63
2022/06/13 06:14:15;;;;;;;8.13;4.70;;;18.50;62.40;;;21.68;46.30;101792.47;5095356;28;20275;-62
2022/06/13 06:16:42;;;;;;;9.07;5.00;;;18.60;62.10;;;21.70;46.54;101790.38;5095422;28;20239;-64
2022/06/13 06:19:11;;;;;;;10.30;5.67;;;18.60;61.70;;;21.68;46.31;101793.25;5095097;28;20222;-61
2022/06/13 06:21:39;;;;;;;12.00;5.50;;;18.60;61.20;;;21.68;46.21;101792.47;5094434;28;20224;-62
2022/06/13 06:24:07;;;;;;;11.30;5.53;;;18.70;61.40;;;21.70;45.86;101795.72;5107674;28;20284;-62
2022/06/13 06:26:36;;;;;;;9.53;5.80;;;18.70;61.10;;;21.75;45.94;101794.00;5115055;28;20184;-63
2022/06/13 06:29:03;;;;;;;10.07;4.80;;;18.70;60.90;;;21.83;45.21;101793.72;5114535;28;20611;-63
2022/06/13 06:31:32;;;;;;;10.17;5.63;;;18.80;60.70;;;21.88;45.40;101803.81;5114555;28;20199;-63
2022/06/13 06:33:59;;;;;;;8.13;4.83;;;18.80;60.20;;;21.89;44.63;101805.47;5114613;28;20253;-61
2022/06/13 06:36:27;;;;;;;11.53;5.03;;;18.90;59.80;;;21.91;44.54;101804.19;5115070;27;20747;-63
2022/06/13 06:38:56;;;;;;;9.43;4.40;;;18.90;59.40;;;21.92;44.38;101808.50;5114231;28;20214;-62
2022/06/13 06:41:24;;;;;;;10.30;5.40;;;18.90;59.30;;;21.92;44.32;101810.34;5096632;28;20723;-61
2022/06/13 06:43:51;;;;;;;9.97;5.67;;;19.00;58.90;;;21.94;44.65;101809.09;5093914;28;20189;-63
2022/06/13 06:46:19;;;;;;;7.53;4.77;;;19.00;59.10;;;21.99;44.27;101816.47;5094867;28;20189;-62
2022/06/13 06:48:47;;;;;;;11.10;4.70;;;19.00;58.40;;;22.03;43.89;101817.69;5094166;28;20195;-61
2022/06/13 06:51:15;;;;;;;8.60;4.63;;;19.00;58.10;;;22.10;43.47;101818.41;5094336;28;20241;-61
2022/06/13 07:02:04;;;;;;;8.30;4.73;;;19.20;57.10;;;22.25;42.45;101818.84;5073833;28;20216;-63
2022/06/13 07:04:32;;;;;;;7.53;4.20;;;19.30;57.00;;;22.29;42.61;101811.19;5073996;28;20718;-61
2022/06/13 07:07:03;;;;;;;11.43;4.30;;;19.30;56.50;;;22.33;42.01;101807.81;5085289;28;20606;-61
2022/06/13 07:09:31;;;;;;;6.57;3.77;;;19.30;56.60;;;22.42;42.23;101806.47;5085108;28;20196;-62
2022/06/13 07:12:00;;;;;;;8.17;3.57;;;19.40;56.40;;;22.51;41.89;101799.72;5084964;28;20212;-63
2022/06/13 07:14:46;;;;;;;10.37;4.60;;;19.40;55.90;;;22.61;41.60;101796.53;5085615;28;20215;-62
2022/06/13 07:17:32;;;;;;;8.80;3.90;;;19.50;55.80;;;22.69;41.26;101791.69;5085385;28;20212;-62
2022/06/13 07:19:59;;;;;;;9.07;4.23;;;19.60;55.80;;;22.77;41.40;101798.59;5085566;28;20205;-62
2022/06/13 07:22:27;;;;;;;11.57;4.77;;;19.70;55.70;;;22.81;41.43;101822.06;5085610;28;20270;-61
2022/06/13 07:24:55;;;;;;;6.03;3.00;;;19.70;55.60;;;22.74;42.06;101826.72;5085432;28;20203;-60
2022/06/13 07:27:44;;;;;;;9.03;3.50;;;19.70;56.40;;;22.48;42.81;101845.00;5085882;28;20330;-61
2022/06/13 07:30:15;;;;;;;9.40;2.40;;;19.50;57.10;;;22.20;42.01;101843.66;5085850;28;20188;-63
2022/06/13 07:32:44;;;;;;;11.93;6.20;;;19.30;55.70;;;21.95;42.10;101850.97;5085893;28;20973;-61
2022/06/13 07:35:16;;;;;;;9.63;2.87;;;19.10;55.40;;;21.71;42.87;101845.59;5087713;28;20224;-63
2022/06/13 07:40:31;;;;;;;10.70;2.87;;;18.70;57.30;;;21.40;44.07;101844.63;5081297;28;20527;-62
2022/06/13 07:43:06;;;;;;;5.63;4.13;;;18.50;57.60;;;21.32;44.41;101838.75;5085316;28;20553;-62
2022/06/13 07:45:39;;;;;;;4.50;2.63;;;18.40;59.20;;;21.32;45.44;101836.84;5084444;28;20306;-62
2022/06/13 07:48:21;;;;;;;3.67;1.67;;;18.30;59.80;;;21.47;45.58;101837.34;5085535;28;20197;-60
2022/06/13 07:50:48;;;;;;;3.10;2.20;;;18.20;60.80;;;21.71;45.51;101832.19;5083850;28;20216;-63
2022/06/13 07:53:16;;;;;;;5.77;3.77;;;18.30;61.90;;;21.94;45.68;101829.75;5084596;28;20192;-62
2022/06/13 07:56:04;;;;;;;3.20;2.77;;;18.40;63.00;;;22.12;45.31;101837.78;5085464;28;20196;-62
2022/06/13 07:58:36;;;;;;;7.20;3.30;;;18.60;61.10;;;22.21;44.71;101836.44;5085426;28;20188;-63
2022/06/13 08:01:05;;;;;;;4.60;2.83;;;18.70;60.90;;;22.19;43.19;101839.38;5085073;28;20253;-63
2022/06/13 08:03:34;;;;;;;6.87;3.00;;;18.70;58.80;;;22.19;44.18;101833.16;5085074;27;20195;-62
2022/06/13 08:06:03;;;;;;;3.30;2.00;;;18.70;59.70;;;22.27;43.08;101834.75;5085900;28;20202;-62
2022/06/13 08:08:34;;;;;;;2.00;1.80;;;18.80;58.60;;;22.37;42.66;101843.88;5087021;28;20203;-61
2022/06/13 08:11:06;;;;;;;2.07;1.73;;;18.90;57.90;;;22.47;42.48;101844.19;5085173;28;20243;-62
2022/06/13 08:13:39;;;;;;;1.50;1.13;;;19.00;57.70;;;22.57;41.89;101852.50;5080458;28;20203;-62
2022/06/13 08:16:08;;;;;;;2.13;1.10;;;19.10;57.10;;;22.67;41.34;101855.53;5086292;28;20611;-64
2022/06/13 08:18:37;;;;;;;5.10;1.80;;;19.10;56.70;;;23.26;41.15;101857.34;5084119;28;20688;-61
2022/06/13 08:21:05;;;;;;;5.53;1.70;;;19.30;57.50;;;24.56;40.20;101858.72;5084618;28;20701;-64
2022/06/13 08:23:36;;;;;;;2.50;1.40;;;19.70;58.10;;;26.16;36.76;101853.63;5084880;28;20216;-64
2022/06/13 08:26:04;;;;;;;4.43;1.60;;;20.30;56.80;;;27.45;34.74;101841.78;5084973;28;20276;-64
2022/06/13 08:28:32;;;;;;;3.10;1.07;;;21.00;54.40;;;28.45;31.81;101851.56;5084481;28;20193;-62
2022/06/13 08:31:08;;;;;;;2.30;1.40;;;21.80;51.20;;;29.27;30.88;101848.75;5084423;28;20216;-63
2022/06/13 08:33:35;;;;;;;2.77;1.40;;;22.50;49.90;;;30.32;28.96;101855.06;5082668;28;20533;-63
2022/06/13 08:36:04;;;;;;;2.17;1.47;;;23.20;48.20;;;31.35;27.04;101852.25;5085006;28;20242;-64
2022/06/13 08:38:32;;;;;;;2.37;1.80;;;23.90;45.80;;;32.14;25.81;101854.47;5084722;28;20217;-63
2022/06/13 08:41:12;;;;;;;4.20;2.50;;;24.60;44.10;;;32.73;25.27;101851.25;5083916;28;20236;-65
2022/06/13 08:44:23;;;;;;;2.83;2.47;;;25.20;42.20;;;33.30;24.74;101861.84;5084883;28;20200;-63
2022/06/13 08:47:10;;;;;;;2.50;1.40;;;25.90;40.40;;;33.99;23.54;101855.38;5073893;28;20614;-62
2022/06/13 08:49:43;;;;;;;3.97;1.23;;;26.60;38.80;;;34.61;23.38;101853.81;5080943;28;20216;-63
2022/06/13 08:52:27;;;;;;;2.13;1.83;;;27.10;38.20;;;34.83;22.39;101857.72;5087399;28;20239;-62
2022/06/13 08:55:07;;;;;;;1.93;1.40;;;27.50;37.00;;;35.18;22.31;101852.19;5089535;28;20942;-63
2022/06/13 08:57:39;;;;;;;2.97;1.37;;;27.80;35.20;;;35.17;22.17;101855.25;5090819;28;20185;-62
2022/06/13 09:00:12;;;;;;;4.07;1.60;;;28.10;34.30;;;35.36;21.46;101855.84;5085929;28;20231;-63
2022/06/13 09:02:52;;;;;;;3.33;1.53;;;28.30;33.60;;;35.72;21.60;101847.50;5087821;28;20220;-64
2022/06/13 09:05:33;;;;;;;2.30;1.47;;;28.60;33.80;;;36.24;21.14;101857.53;5087469;28;20199;-61
2022/06/13 09:08:11;;;;;;;2.97;1.57;;;28.80;32.60;;;36.32;20.21;101858.69;5087402;28;20341;-62
2022/06/13 09:10:47;;;;;;;3.87;1.40;;;29.10;32.00;;;36.49;20.41;101850.53;5087158;28;20195;-63
2022/06/13 09:13:25;;;;;;;3.20;1.40;;;29.30;32.00;;;36.82;19.79;101851.66;5089137;28;20191;-63
2022/06/13 09:16:03;;;;;;;2.20;1.60;;;29.40;30.80;;;36.41;20.27;101851.28;5088229;28;20224;-63
2022/06/13 09:18:45;;;;;;;1.77;1.10;;;29.60;31.10;;;36.51;20.10;101851.00;5088436;28;20200;-62
2022/06/13 09:21:26;;;;;;;3.53;2.10;;;29.60;30.40;;;36.42;19.68;101852.91;5086514;28;20670;-63
2022/06/13 09:24:08;;;;;;;4.17;1.93;;;29.50;30.50;;;36.15;19.94;101866.88;5087005;28;20188;-61
2022/06/13 09:26:45;;;;;;;3.30;3.00;;;29.40;30.20;;;36.17;19.38;101868.19;5088126;28;20199;-62
2022/06/13 09:29:20;;;;;;;2.90;2.13;;;29.50;30.00;;;35.88;19.61;101855.00;5087074;28;20193;-62
2022/06/13 09:31:55;;;;;;;3.63;2.13;;;29.60;29.90;;;35.33;21.02;101861.94;5085870;28;20219;-61
2022/06/13 09:34:35;;;;;;;4.60;1.80;;;29.50;30.10;;;35.39;20.17;101863.44;5087226;28;20207;-63
2022/06/13 09:37:10;;;;;;;2.03;1.60;;;29.30;30.10;;;35.57;20.10;101854.22;5084977;28;20216;-63
2022/06/13 09:39:39;;;;;;;2.30;1.60;;;29.20;30.00;;;35.71;19.84;101849.44;5083643;28;20194;-62
2022/06/13 09:42:32;;;;;;;4.47;1.57;;;29.30;29.90;;;34.71;20.59;101859.06;5083784;27;20224;-62
2022/06/13 09:45:39;;;;;;;3.13;2.00;;;29.10;29.80;;;33.38;22.10;101858.41;5085188;28;20988;-61
2022/06/13 09:48:25;;;;;;;4.80;2.33;;;28.80;30.10;;;32.18;23.09;101865.59;5083950;28;20232;-62
2022/06/13 09:51:10;;;;;;;3.27;1.70;;;28.20;31.20;;;31.03;24.75;101860.94;5083161;28;20224;-64
2022/06/13 09:53:58;;;;;;;2.40;1.70;;;27.40;32.30;;;30.34;25.68;101862.97;5085173;28;20593;-63
2022/06/13 09:56:33;;;;;;;1.43;1.33;;;26.90;33.80;;;30.17;25.64;101863.28;5086011;28;20198;-64
2022/06/13 09:59:23;;;;;;;2.77;1.20;;;26.50;34.50;;;30.38;25.18;101875.72;5084024;28;20203;-63
2022/06/13 10:01:59;;;;;;;2.83;1.00;;;26.10;34.70;;;31.43;23.62;101866.09;5085319;28;20380;-64
2022/06/13 10:04:49;;;;;;;3.20;2.27;;;26.10;33.30;;;33.32;22.16;101862.34;5083099;28;21697;-63
2022/06/13 10:07:22;;;;;;;2.03;1.43;;;26.50;33.90;;;34.81;20.01;101865.41;5084909;28;20192;-62
2022/06/13 10:10:01;;;;;;;3.67;2.50;;;27.10;31.50;;;34.87;19.41;101869.66;5082739;28;20201;-63
2022/06/13 10:12:44;;;;;;;2.30;1.80;;;27.60;30.00;;;33.79;19.82;101863.16;5084697;28;20369;-62
2022/06/13 10:15:28;;;;;;;2.40;1.40;;;27.70;29.40;;;32.48;21.50;101868.75;5085099;28;20200;-62
2022/06/13 10:18:19;;;;;;;3.73;1.70;;;27.50;29.50;;;31.30;22.98;101865.91;5082963;28;20224;-63
2022/06/13 10:20:53;;;;;;;2.27;1.10;;;27.20;30.20;;;30.57;23.86;101874.00;5084918;28;21120;-62
2022/06/13 10:23:41;;;;;;;2.83;1.20;;;26.80;31.10;;;30.17;24.21;101895.88;5084843;28;20664;-62
2022/06/13 10:26:22;;;;;;;3.40;1.27;;;26.30;32.00;;;30.19;23.44;101910.00;5098840;28;20204;-62
2022/06/13 10:29:22;;;;;;;3.87;1.00;;;25.90;32.00;;;29.60;23.97;101901.66;5084568;28;20594;-63
2022/06/13 10:32:12;;;;;;;2.30;1.00;;;25.60;32.30;;;28.73;25.26;101908.06;5082656;28;20236;-64
2022/06/13 10:35:01;;;;;;;8.20;1.87;;;25.10;33.10;;;27.94;26.50;101920.88;5086436;28;20600;-63
2022/06/13 10:37:47;;;;;;;4.60;1.37;;;24.70;34.70;;;27.28;27.18;101916.00;5085175;28;20222;-61
2022/06/13 10:40:18;;;;;;;1.10;1.00;;;24.10;35.20;;;26.64;29.69;101921.22;5085674;28;20195;-64
2022/06/13 10:42:46;;;;;;;2.60;1.57;;;23.60;39.20;;;26.14;31.10;101910.59;5083627;28;20240;-62
2022/06/13 10:45:16;;;;;;;3.43;1.30;;;23.20;40.50;;;25.67;32.40;101911.19;5085003;27;20232;-64
2022/06/13 10:47:49;;;;;;;2.20;1.07;;;22.80;42.10;;;25.23;32.79;101902.84;5083957;28;20203;-61
2022/06/13 10:50:26;;;;;;;1.53;1.37;;;22.40;43.20;;;24.95;33.30;101902.88;5084709;28;20215;-65
2022/06/13 10:53:01;;;;;;;1.73;1.40;;;22.10;44.10;;;24.96;34.40;101901.00;5085717;28;20198;-62
2022/06/13 10:55:40;;;;;;;2.63;1.70;;;21.80;45.50;;;25.21;34.31;101914.94;5084716;28;20920;-62
2022/06/13 10:58:18;;;;;;;2.37;1.37;;;21.70;46.60;;;25.74;32.95;101909.13;5085263;28;20246;-62
2022/06/13 11:01:05;;;;;;;2.23;1.30;;;21.80;46.20;;;26.42;32.47;101906.91;5081933;28;20314;-62
2022/06/13 11:03:32;;;;;;;3.77;2.60;;;22.00;46.50;;;26.87;31.80;101901.25;5083696;28;20224;-62
2022/06/13 11:06:06;;;;;;;4.37;1.63;;;22.20;45.10;;;27.03;31.21;101902.22;5080705;28;20273;-64